NCAR-RAP Real-Time Weather Data

Output produced by METARs form (23 February 2020  01:26 UTC)
found at http://weather.rap.ucar.edu/surface/
 
KPWM 230051Z 25005KT 10SM CLR 03/M08 A3008 RMK AO2 SLP188 T00331083
KPWM 222351Z 26008KT 10SM CLR 04/M08 A3008 RMK AO2 SLP186 T00441083 10067 20044 53017
KPWM 222251Z 26008KT 10SM FEW150 SCT250 05/M08 A3005 RMK AO2 SLP177 T00501083
KPWM 222151Z 25006KT 10SM FEW150 SCT250 06/M09 A3004 RMK AO2 SLP173 T00611089
KPWM 222051Z 25009KT 10SM CLR 06/M08 A3003 RMK AO2 SLP170 T00611083 55006
KPWM 221951Z 28010KT 10SM CLR 06/M08 A3003 RMK AO2 SLP169 T00561078
KPWM 221851Z 27010KT 10SM FEW250 06/M09 A3003 RMK AO2 SLP171 T00561089
KPWM 221751Z 29009KT 10SM FEW250 05/M09 A3005 RMK AO2 SLP176 T00501094 10050 21072 57018
KPWM 221651Z 29010KT 10SM SCT250 04/M09 A3007 RMK AO2 SLP183 T00391094
KPWM 221551Z 28007KT 10SM FEW250 03/M11 A3008 RMK AO2 SLP187 T00281106
KPWM 221451Z 25008KT 10SM FEW250 01/M12 A3010 RMK AO2 SLP194 T00111122 58001
KPWM 221351Z 29007KT 10SM FEW200 M02/M13 A3012 RMK AO2 SLP199 T10171133
KPWM 221251Z 25004KT 10SM FEW150 M04/M15 A3012 RMK AO2 SLP201 T10391150
KPWM 221151Z 26004KT 10SM CLR M06/M16 A3010 RMK AO2 SLP195 T10611156 11039 21061 53005
KPWM 221051Z 26004KT 10SM CLR M06/M16 A3010 RMK AO2 SLP193 T10561156
KPWM 220951Z 23008KT 10SM CLR M04/M16 A3009 RMK AO2 SLP190 T10441156
KPWM 220851Z AUTO 24008KT 10SM CLR M05/M16 A3009 RMK AO2 SLP191 T10501156 56018
KPWM 220751Z AUTO 23009KT 10SM CLR M04/M16 A3011 RMK AO2 SLP196 T10441156
KPWM 220651Z AUTO 22007KT 10SM CLR M04/M16 A3012 RMK AO2 SLP201 T10391156
KPWM 220551Z AUTO 23008KT 10SM CLR M04/M16 A3014 RMK AO2 SLP209 T10391161 11028 21039 56024
KPWM 220451Z 22010KT 10SM CLR M03/M17 A3017 RMK AO2 SLP216 LAST T10331167 410221167
KPWM 220351Z 21010KT 10SM CLR M03/M17 A3019 RMK AO2 SLP225 T10331172
KPWM 220251Z 21009KT 10SM CLR M03/M18 A3022 RMK AO2 SLP233 T10331178 58024
KPWM 220151Z 21007KT 10SM CLR M03/M18 A3025 RMK AO2 SLP244 T10331183
KPWM 220051Z 21007KT 10SM CLR M03/M17 A3027 RMK AO2 SLP252 T10331172
KPWM 212351Z 18005KT 10SM CLR M03/M14 A3029 RMK AO2 SLP257 T10331139 11022 21044 56011
KPWM 212251Z 21005KT 10SM CLR M03/M13 A3030 RMK AO2 SLP262 T10281133
KPWM 212151Z 19006KT 10SM CLR M02/M13 A3031 RMK AO2 SLP263 T10221133
KPWM 212051Z 18009G17KT 10SM CLR M02/M14 A3032 RMK AO2 SLP269 T10221139 58024
KPWM 211951Z 16005KT 10SM CLR M03/M15 A3034 RMK AO2 SLP277 T10331150
KPWM 211851Z 15007KT 10SM CLR M04/M17 A3037 RMK AO2 SLP285 T10391172
KPWM 211751Z 19007KT 10SM CLR M04/M18 A3039 RMK AO2 SLP292 T10441183 11044 21167 58027
KPWM 211651Z 18006KT 10SM CLR M05/M20 A3043 RMK AO2 SLP307 T10501200
KPWM 211551Z VRB04KT 10SM CLR M07/M20 A3046 RMK AO2 SLP315 T10671200
KPWM 211451Z 30003KT 10SM CLR M09/M19 A3047 RMK AO2 SLP319 T10891194 58000
KPWM 211351Z 28006KT 10SM FEW035 M11/M21 A3049 RMK AO2 SLP325 T11111206
KPWM 211251Z 28005KT 10SM FEW030 M14/M21 A3047 RMK AO2 SLP321 T11441211
KPWM 211151Z 31003KT 10SM FEW030 M16/M22 A3047 RMK AO2 SLP320 T11561217 11111 21161 53004
KPWM 211051Z 35007KT 10SM CLR M15/M22 A3046 RMK AO2 SLP316 T11501217
KPWM 210951Z 36005KT 10SM CLR M14/M22 A3046 RMK AO2 SLP316 T11441217
KPWM 210851Z AUTO 01005KT 10SM CLR M13/M20 A3046 RMK AO2 SLP316 T11331200 53008
KPWM 210751Z AUTO 02004KT 10SM CLR M12/M22 A3045 RMK AO2 SLP312 T11221222
KPWM 210651Z AUTO 02004KT 10SM CLR M12/M22 A3044 RMK AO2 SLP308 T11171222
KPWM 210551Z AUTO 34004KT 10SM CLR M11/M21 A3044 RMK AO2 SLP308 T11111211 11056 21111 55001
KPWM 210451Z 35008KT 10SM CLR M11/M21 A3043 RMK AO2 SLP304 LAST T11061206 410171111
KPWM 210351Z 35005KT 10SM CLR M09/M20 A3044 RMK AO2 SLP308 T10941200
KPWM 210251Z 34004KT 10SM CLR M08/M20 A3044 RMK AO2 SLP309 T10831200 53013
KPWM 210151Z 32006KT 10SM CLR M08/M19 A3042 RMK AO2 SLP302 T10781194